Terminal Aerodrome Forecast
Issued by NWS

Home | Current Version | Previous Version | Graphics & Text | Print | Product List | Glossary On
Versions: 1 2 3 4 5 6 7 8 9 10 11 12 13 14 15 16 17
000
FTUS43 KMPX 200500
TAFRWF
TAF
KRWF 200535Z 2006/2106 29009KT P6SM SKC
     FM201400 30011G16KT P6SM SCT040
     FM210100 19004KT P6SM SKC=

USA.gov is the U.S. government's official web portal to all federal, state and local government web resources and services.